sensor_id;sensor_type;location;lat;lon;timestamp;temperature;humidity
68609;SHT31;55581;46.718;7.690;2023-07-28T00:02:04;17.72;79.23
68609;SHT31;55581;46.718;7.690;2023-07-28T00:04:29;17.68;78.87
68609;SHT31;55581;46.718;7.690;2023-07-28T00:06:57;17.52;77.73
68609;SHT31;55581;46.718;7.690;2023-07-28T00:09:22;17.39;77.87
68609;SHT31;55581;46.718;7.690;2023-07-28T00:11:48;17.26;78.73
68609;SHT31;55581;46.718;7.690;2023-07-28T00:14:14;17.21;79.14
68609;SHT31;55581;46.718;7.690;2023-07-28T00:16:44;17.19;78.94
68609;SHT31;55581;46.718;7.690;2023-07-28T00:19:10;17.11;78.67
68609;SHT31;55581;46.718;7.690;2023-07-28T00:21:38;17.24;78.58
68609;SHT31;55581;46.718;7.690;2023-07-28T00:24:03;17.27;77.27
68609;SHT31;55581;46.718;7.690;2023-07-28T00:26:29;17.42;77.49
68609;SHT31;55581;46.718;7.690;2023-07-28T00:28:56;17.35;77.44
68609;SHT31;55581;46.718;7.690;2023-07-28T00:31:24;17.31;77.71
68609;SHT31;55581;46.718;7.690;2023-07-28T00:33:49;17.06;77.20
68609;SHT31;55581;46.718;7.690;2023-07-28T00:36:17;17.06;77.28
68609;SHT31;55581;46.718;7.690;2023-07-28T00:38:45;16.99;78.41
68609;SHT31;55581;46.718;7.690;2023-07-28T00:41:10;17.07;78.79
68609;SHT31;55581;46.718;7.690;2023-07-28T00:43:35;17.16;79.15
68609;SHT31;55581;46.718;7.690;2023-07-28T00:46:01;17.20;78.85
68609;SHT31;55581;46.718;7.690;2023-07-28T00:48:26;17.26;78.55
68609;SHT31;55581;46.718;7.690;2023-07-28T00:50:52;17.32;78.09
68609;SHT31;55581;46.718;7.690;2023-07-28T00:53:19;17.38;77.58
68609;SHT31;55581;46.718;7.690;2023-07-28T00:55:45;17.31;76.92
68609;SHT31;55581;46.718;7.690;2023-07-28T00:58:10;17.30;76.98
68609;SHT31;55581;46.718;7.690;2023-07-28T01:00:36;17.20;76.80
68609;SHT31;55581;46.718;7.690;2023-07-28T01:03:02;17.06;77.46
68609;SHT31;55581;46.718;7.690;2023-07-28T01:05:37;16.94;78.52
68609;SHT31;55581;46.718;7.690;2023-07-28T01:10:56;16.90;78.15
68609;SHT31;55581;46.718;7.690;2023-07-28T01:13:22;16.82;77.84
68609;SHT31;55581;46.718;7.690;2023-07-28T01:15:49;16.83;77.25
68609;SHT31;55581;46.718;7.690;2023-07-28T01:18:15;16.80;76.06
68609;SHT31;55581;46.718;7.690;2023-07-28T01:20:41;16.77;77.03
68609;SHT31;55581;46.718;7.690;2023-07-28T01:23:17;16.75;77.45
68609;SHT31;55581;46.718;7.690;2023-07-28T01:28:18;16.94;77.80
68609;SHT31;55581;46.718;7.690;2023-07-28T01:30:44;16.99;77.37
68609;SHT31;55581;46.718;7.690;2023-07-28T01:33:10;17.06;77.25
68609;SHT31;55581;46.718;7.690;2023-07-28T01:35:38;17.10;77.13
68609;SHT31;55581;46.718;7.690;2023-07-28T01:38:04;17.13;77.87
68609;SHT31;55581;46.718;7.690;2023-07-28T01:40:30;17.14;77.58
68609;SHT31;55581;46.718;7.690;2023-07-28T01:42:55;17.19;78.18
68609;SHT31;55581;46.718;7.690;2023-07-28T01:45:21;17.24;76.70
68609;SHT31;55581;46.718;7.690;2023-07-28T01:47:49;17.27;77.13
68609;SHT31;55581;46.718;7.690;2023-07-28T01:50:14;17.28;77.16
68609;SHT31;55581;46.718;7.690;2023-07-28T01:52:40;17.21;76.97
68609;SHT31;55581;46.718;7.690;2023-07-28T01:55:06;17.21;77.77
68609;SHT31;55581;46.718;7.690;2023-07-28T01:57:34;17.17;78.13
68609;SHT31;55581;46.718;7.690;2023-07-28T02:00:02;17.19;77.90
68609;SHT31;55581;46.718;7.690;2023-07-28T02:02:28;17.13;78.40
68609;SHT31;55581;46.718;7.690;2023-07-28T02:04:54;17.09;78.12
68609;SHT31;55581;46.718;7.690;2023-07-28T02:07:19;17.09;78.36
68609;SHT31;55581;46.718;7.690;2023-07-28T02:09:45;17.09;78.66
68609;SHT31;55581;46.718;7.690;2023-07-28T02:12:10;16.94;78.27
68609;SHT31;55581;46.718;7.690;2023-07-28T02:14:35;16.84;78.04
68609;SHT31;55581;46.718;7.690;2023-07-28T02:17:01;16.92;77.11
68609;SHT31;55581;46.718;7.690;2023-07-28T02:19:26;16.89;76.93
68609;SHT31;55581;46.718;7.690;2023-07-28T02:21:51;16.86;77.85
68609;SHT31;55581;46.718;7.690;2023-07-28T02:24:17;16.82;77.65
68609;SHT31;55581;46.718;7.690;2023-07-28T02:26:42;16.80;78.45
68609;SHT31;55581;46.718;7.690;2023-07-28T02:29:08;16.84;77.51
68609;SHT31;55581;46.718;7.690;2023-07-28T02:31:33;16.83;77.48
68609;SHT31;55581;46.718;7.690;2023-07-28T02:34:01;16.75;78.27
68609;SHT31;55581;46.718;7.690;2023-07-28T02:36:26;16.66;79.12
68609;SHT31;55581;46.718;7.690;2023-07-28T02:38:51;16.61;78.90
68609;SHT31;55581;46.718;7.690;2023-07-28T02:41:19;16.61;79.22
68609;SHT31;55581;46.718;7.690;2023-07-28T02:43:45;16.48;80.18
68609;SHT31;55581;46.718;7.690;2023-07-28T02:46:10;16.47;79.66
68609;SHT31;55581;46.718;7.690;2023-07-28T02:48:38;16.41;79.78
68609;SHT31;55581;46.718;7.690;2023-07-28T02:51:03;16.35;80.39
68609;SHT31;55581;46.718;7.690;2023-07-28T02:53:33;16.37;80.19
68609;SHT31;55581;46.718;7.690;2023-07-28T02:55:59;16.37;80.38
68609;SHT31;55581;46.718;7.690;2023-07-28T02:58:24;16.29;80.83
68609;SHT31;55581;46.718;7.690;2023-07-28T03:00:51;16.28;80.71
68609;SHT31;55581;46.718;7.690;2023-07-28T03:03:17;16.28;79.85
68609;SHT31;55581;46.718;7.690;2023-07-28T03:05:45;16.38;80.63
68609;SHT31;55581;46.718;7.690;2023-07-28T03:08:10;16.32;80.47
68609;SHT31;55581;46.718;7.690;2023-07-28T03:10:36;16.25;80.03
68609;SHT31;55581;46.718;7.690;2023-07-28T03:13:01;16.20;80.91
68609;SHT31;55581;46.718;7.690;2023-07-28T03:15:27;16.10;80.92
68609;SHT31;55581;46.718;7.690;2023-07-28T03:17:58;16.07;80.14
68609;SHT31;55581;46.718;7.690;2023-07-28T03:20:25;16.06;79.04
68609;SHT31;55581;46.718;7.690;2023-07-28T03:22:53;16.01;80.13
68609;SHT31;55581;46.718;7.690;2023-07-28T03:25:20;16.07;81.49
68609;SHT31;55581;46.718;7.690;2023-07-28T03:27:45;16.01;79.94
68609;SHT31;55581;46.718;7.690;2023-07-28T03:30:13;16.07;79.14
68609;SHT31;55581;46.718;7.690;2023-07-28T03:32:39;16.00;79.50
68609;SHT31;55581;46.718;7.690;2023-07-28T03:35:04;16.03;80.01
68609;SHT31;55581;46.718;7.690;2023-07-28T03:37:33;16.03;79.42
68609;SHT31;55581;46.718;7.690;2023-07-28T03:39:59;16.01;80.14
68609;SHT31;55581;46.718;7.690;2023-07-28T03:42:24;16.03;78.91
68609;SHT31;55581;46.718;7.690;2023-07-28T03:44:52;16.06;79.01
68609;SHT31;55581;46.718;7.690;2023-07-28T03:47:17;15.91;81.36
68609;SHT31;55581;46.718;7.690;2023-07-28T03:49:47;15.96;80.30
68609;SHT31;55581;46.718;7.690;2023-07-28T03:52:13;16.03;79.58
68609;SHT31;55581;46.718;7.690;2023-07-28T03:54:38;16.07;80.36
68609;SHT31;55581;46.718;7.690;2023-07-28T03:57:04;16.06;80.40
68609;SHT31;55581;46.718;7.690;2023-07-28T03:59:29;16.06;80.52
68609;SHT31;55581;46.718;7.690;2023-07-28T04:01:55;16.01;81.32
68609;SHT31;55581;46.718;7.690;2023-07-28T04:04:20;16.07;81.86
68609;SHT31;55581;46.718;7.690;2023-07-28T04:06:47;16.16;82.31
68609;SHT31;55581;46.718;7.690;2023-07-28T04:09:14;16.27;82.16
68609;SHT31;55581;46.718;7.690;2023-07-28T04:11:40;16.22;82.32
68609;SHT31;55581;46.718;7.690;2023-07-28T04:14:06;16.22;82.77
68609;SHT31;55581;46.718;7.690;2023-07-28T04:16:32;16.28;82.34
68609;SHT31;55581;46.718;7.690;2023-07-28T04:18:57;16.34;82.68
68609;SHT31;55581;46.718;7.690;2023-07-28T04:21:25;16.37;82.89
68609;SHT31;55581;46.718;7.690;2023-07-28T04:23:51;16.37;83.07
68609;SHT31;55581;46.718;7.690;2023-07-28T04:26:17;16.41;82.74
68609;SHT31;55581;46.718;7.690;2023-07-28T04:28:42;16.35;82.70
68609;SHT31;55581;46.718;7.690;2023-07-28T04:31:08;16.31;83.07
68609;SHT31;55581;46.718;7.690;2023-07-28T04:33:33;16.29;82.91
68609;SHT31;55581;46.718;7.690;2023-07-28T04:36:00;16.21;82.96
68609;SHT31;55581;46.718;7.690;2023-07-28T04:38:29;16.25;81.12
68609;SHT31;55581;46.718;7.690;2023-07-28T04:40:54;16.34;82.25
68609;SHT31;55581;46.718;7.690;2023-07-28T04:43:19;16.34;82.02
68609;SHT31;55581;46.718;7.690;2023-07-28T04:45:45;16.32;82.24
68609;SHT31;55581;46.718;7.690;2023-07-28T04:48:13;16.42;82.51
68609;SHT31;55581;46.718;7.690;2023-07-28T04:50:38;16.47;80.49
68609;SHT31;55581;46.718;7.690;2023-07-28T04:53:04;16.55;82.39
68609;SHT31;55581;46.718;7.690;2023-07-28T04:55:32;16.59;81.88
68609;SHT31;55581;46.718;7.690;2023-07-28T04:57:59;16.66;82.41
68609;SHT31;55581;46.718;7.690;2023-07-28T05:00:25;16.73;82.30
68609;SHT31;55581;46.718;7.690;2023-07-28T05:02:53;16.84;80.60
68609;SHT31;55581;46.718;7.690;2023-07-28T05:05:19;16.97;79.62
68609;SHT31;55581;46.718;7.690;2023-07-28T05:07:46;17.06;80.01
68609;SHT31;55581;46.718;7.690;2023-07-28T05:10:14;17.07;81.42
68609;SHT31;55581;46.718;7.690;2023-07-28T05:12:39;17.14;79.58
68609;SHT31;55581;46.718;7.690;2023-07-28T05:15:05;17.27;78.92
68609;SHT31;55581;46.718;7.690;2023-07-28T05:17:31;17.30;79.80
68609;SHT31;55581;46.718;7.690;2023-07-28T05:19:56;17.35;80.41
68609;SHT31;55581;46.718;7.690;2023-07-28T05:22:21;17.41;80.34
68609;SHT31;55581;46.718;7.690;2023-07-28T05:24:47;17.49;79.17
68609;SHT31;55581;46.718;7.690;2023-07-28T05:27:13;17.57;79.44
68609;SHT31;55581;46.718;7.690;2023-07-28T05:29:38;17.64;79.71
68609;SHT31;55581;46.718;7.690;2023-07-28T05:32:04;17.69;79.72
68609;SHT31;55581;46.718;7.690;2023-07-28T05:34:30;17.66;80.55
68609;SHT31;55581;46.718;7.690;2023-07-28T05:36:56;17.71;80.04
68609;SHT31;55581;46.718;7.690;2023-07-28T05:39:21;17.71;80.43
68609;SHT31;55581;46.718;7.690;2023-07-28T05:41:47;17.71;80.69
68609;SHT31;55581;46.718;7.690;2023-07-28T05:44:12;17.61;80.77
68609;SHT31;55581;46.718;7.690;2023-07-28T05:46:38;17.59;81.17
68609;SHT31;55581;46.718;7.690;2023-07-28T05:49:04;17.52;81.21
68609;SHT31;55581;46.718;7.690;2023-07-28T05:51:32;17.48;82.39
68609;SHT31;55581;46.718;7.690;2023-07-28T05:53:59;17.52;82.84
68609;SHT31;55581;46.718;7.690;2023-07-28T05:56:27;17.54;82.24
68609;SHT31;55581;46.718;7.690;2023-07-28T05:58:52;17.42;82.72
68609;SHT31;55581;46.718;7.690;2023-07-28T06:01:20;17.59;83.08
68609;SHT31;55581;46.718;7.690;2023-07-28T06:03:50;17.68;82.26
68609;SHT31;55581;46.718;7.690;2023-07-28T06:06:17;17.66;82.92
68609;SHT31;55581;46.718;7.690;2023-07-28T06:08:44;17.64;82.87
68609;SHT31;55581;46.718;7.690;2023-07-28T06:11:09;17.75;82.83
68609;SHT31;55581;46.718;7.690;2023-07-28T06:13:34;17.75;83.00
68609;SHT31;55581;46.718;7.690;2023-07-28T06:16:02;17.83;81.28
68609;SHT31;55581;46.718;7.690;2023-07-28T06:18:28;17.92;81.06
68609;SHT31;55581;46.718;7.690;2023-07-28T06:20:56;17.97;82.01
68609;SHT31;55581;46.718;7.690;2023-07-28T06:23:24;18.13;81.08
68609;SHT31;55581;46.718;7.690;2023-07-28T06:25:49;18.09;81.20
68609;SHT31;55581;46.718;7.690;2023-07-28T06:28:14;18.16;79.30
68609;SHT31;55581;46.718;7.690;2023-07-28T06:30:40;18.27;80.50
68609;SHT31;55581;46.718;7.690;2023-07-28T06:33:06;18.37;79.50
68609;SHT31;55581;46.718;7.690;2023-07-28T06:35:32;18.55;77.79
68609;SHT31;55581;46.718;7.690;2023-07-28T06:37:59;18.65;78.47
68609;SHT31;55581;46.718;7.690;2023-07-28T06:40:25;18.79;77.75
68609;SHT31;55581;46.718;7.690;2023-07-28T06:42:50;18.93;76.80
68609;SHT31;55581;46.718;7.690;2023-07-28T06:45:20;19.06;76.06
68609;SHT31;55581;46.718;7.690;2023-07-28T06:47:47;19.31;76.65
68609;SHT31;55581;46.718;7.690;2023-07-28T06:50:14;19.38;75.59
68609;SHT31;55581;46.718;7.690;2023-07-28T06:52:39;19.55;74.81
68609;SHT31;55581;46.718;7.690;2023-07-28T06:55:06;19.64;75.91
68609;SHT31;55581;46.718;7.690;2023-07-28T06:57:31;19.69;74.65
68609;SHT31;55581;46.718;7.690;2023-07-28T06:59:59;19.89;74.35
68609;SHT31;55581;46.718;7.690;2023-07-28T07:02:28;19.89;75.71
68609;SHT31;55581;46.718;7.690;2023-07-28T07:04:56;19.82;75.68
68609;SHT31;55581;46.718;7.690;2023-07-28T07:07:24;19.82;74.78
68609;SHT31;55581;46.718;7.690;2023-07-28T07:09:51;19.83;74.41
68609;SHT31;55581;46.718;7.690;2023-07-28T07:12:16;19.96;74.34
68609;SHT31;55581;46.718;7.690;2023-07-28T07:14:44;20.20;72.20
68609;SHT31;55581;46.718;7.690;2023-07-28T07:17:10;20.40;72.32
68609;SHT31;55581;46.718;7.690;2023-07-28T07:19:35;20.60;71.25
68609;SHT31;55581;46.718;7.690;2023-07-28T07:22:04;20.68;70.75
68609;SHT31;55581;46.718;7.690;2023-07-28T07:24:30;20.87;68.49
68609;SHT31;55581;46.718;7.690;2023-07-28T07:26:55;20.92;68.00
68609;SHT31;55581;46.718;7.690;2023-07-28T07:29:20;20.89;67.98
68609;SHT31;55581;46.718;7.690;2023-07-28T07:31:46;20.94;66.00
68609;SHT31;55581;46.718;7.690;2023-07-28T07:34:14;21.15;65.14
68609;SHT31;55581;46.718;7.690;2023-07-28T07:36:42;21.18;63.98
68609;SHT31;55581;46.718;7.690;2023-07-28T07:39:07;21.36;63.48
68609;SHT31;55581;46.718;7.690;2023-07-28T07:41:32;21.54;62.93
68609;SHT31;55581;46.718;7.690;2023-07-28T07:44:01;21.78;61.98
68609;SHT31;55581;46.718;7.690;2023-07-28T07:46:27;21.82;61.48
68609;SHT31;55581;46.718;7.690;2023-07-28T07:48:53;21.84;64.79
68609;SHT31;55581;46.718;7.690;2023-07-28T07:51:18;21.99;63.41
68609;SHT31;55581;46.718;7.690;2023-07-28T07:53:47;21.98;62.82
68609;SHT31;55581;46.718;7.690;2023-07-28T07:56:12;22.06;60.69
68609;SHT31;55581;46.718;7.690;2023-07-28T07:58:38;22.06;62.57
68609;SHT31;55581;46.718;7.690;2023-07-28T08:01:03;22.26;61.26
68609;SHT31;55581;46.718;7.690;2023-07-28T08:03:29;22.18;60.29
68609;SHT31;55581;46.718;7.690;2023-07-28T08:05:55;22.12;64.12
68609;SHT31;55581;46.718;7.690;2023-07-28T08:08:20;22.16;65.27
68609;SHT31;55581;46.718;7.690;2023-07-28T08:10:46;22.20;65.66
68609;SHT31;55581;46.718;7.690;2023-07-28T08:13:15;22.35;64.22
68609;SHT31;55581;46.718;7.690;2023-07-28T08:15:42;22.29;65.22
68609;SHT31;55581;46.718;7.690;2023-07-28T08:18:14;22.42;65.19
68609;SHT31;55581;46.718;7.690;2023-07-28T08:20:39;22.52;65.32
68609;SHT31;55581;46.718;7.690;2023-07-28T08:23:05;22.46;64.95
68609;SHT31;55581;46.718;7.690;2023-07-28T08:25:33;22.43;64.37
68609;SHT31;55581;46.718;7.690;2023-07-28T08:27:59;22.44;64.78
68609;SHT31;55581;46.718;7.690;2023-07-28T08:30:25;22.57;65.33
68609;SHT31;55581;46.718;7.690;2023-07-28T08:32:50;22.71;64.52
68609;SHT31;55581;46.718;7.690;2023-07-28T08:35:16;22.95;64.34
68609;SHT31;55581;46.718;7.690;2023-07-28T08:37:41;22.98;64.08
68609;SHT31;55581;46.718;7.690;2023-07-28T08:40:07;23.09;63.62
68609;SHT31;55581;46.718;7.690;2023-07-28T08:42:38;23.38;62.86
68609;SHT31;55581;46.718;7.690;2023-07-28T08:45:04;23.63;60.95
68609;SHT31;55581;46.718;7.690;2023-07-28T08:47:33;23.59;61.93
68609;SHT31;55581;46.718;7.690;2023-07-28T08:49:59;23.47;62.93
68609;SHT31;55581;46.718;7.690;2023-07-28T08:52:25;23.60;60.02
68609;SHT31;55581;46.718;7.690;2023-07-28T08:54:53;23.50;60.84
68609;SHT31;55581;46.718;7.690;2023-07-28T08:57:18;23.91;59.05
68609;SHT31;55581;46.718;7.690;2023-07-28T08:59:44;24.10;58.60
68609;SHT31;55581;46.718;7.690;2023-07-28T09:02:17;24.42;59.61
68609;SHT31;55581;46.718;7.690;2023-07-28T09:04:44;24.69;57.80
68609;SHT31;55581;46.718;7.690;2023-07-28T09:07:09;24.56;56.75
68609;SHT31;55581;46.718;7.690;2023-07-28T09:09:35;24.46;60.31
68609;SHT31;55581;46.718;7.690;2023-07-28T09:12:04;24.51;60.30
68609;SHT31;55581;46.718;7.690;2023-07-28T09:14:30;24.56;59.94
68609;SHT31;55581;46.718;7.690;2023-07-28T09:17:06;24.48;58.47
68609;SHT31;55581;46.718;7.690;2023-07-28T09:19:31;24.33;59.30
68609;SHT31;55581;46.718;7.690;2023-07-28T09:22:01;24.45;62.50
68609;SHT31;55581;46.718;7.690;2023-07-28T09:24:31;24.59;63.04
68609;SHT31;55581;46.718;7.690;2023-07-28T09:27:00;24.67;58.36
68609;SHT31;55581;46.718;7.690;2023-07-28T09:29:26;24.73;57.86
68609;SHT31;55581;46.718;7.690;2023-07-28T09:32:05;24.86;59.27
68609;SHT31;55581;46.718;7.690;2023-07-28T09:34:31;24.90;59.27
68609;SHT31;55581;46.718;7.690;2023-07-28T09:36:58;24.70;57.41
68609;SHT31;55581;46.718;7.690;2023-07-28T09:39:24;24.83;56.61
68609;SHT31;55581;46.718;7.690;2023-07-28T09:41:50;24.63;58.06
68609;SHT31;55581;46.718;7.690;2023-07-28T09:44:22;24.84;55.67
68609;SHT31;55581;46.718;7.690;2023-07-28T09:46:57;25.08;55.94
68609;SHT31;55581;46.718;7.690;2023-07-28T09:49:29;25.15;55.32
68609;SHT31;55581;46.718;7.690;2023-07-28T09:52:05;25.21;55.46
68609;SHT31;55581;46.718;7.690;2023-07-28T09:54:34;25.03;54.87
68609;SHT31;55581;46.718;7.690;2023-07-28T09:57:02;25.00;55.50
68609;SHT31;55581;46.718;7.690;2023-07-28T09:59:35;25.04;56.42
68609;SHT31;55581;46.718;7.690;2023-07-28T10:02:02;24.97;54.31
68609;SHT31;55581;46.718;7.690;2023-07-28T10:04:29;24.84;53.66
68609;SHT31;55581;46.718;7.690;2023-07-28T10:06:55;24.93;53.87
68609;SHT31;55581;46.718;7.690;2023-07-28T10:09:25;25.11;54.94
68609;SHT31;55581;46.718;7.690;2023-07-28T10:11:51;25.35;54.90
68609;SHT31;55581;46.718;7.690;2023-07-28T10:14:31;25.39;55.03
68609;SHT31;55581;46.718;7.690;2023-07-28T10:16:58;25.39;53.37
68609;SHT31;55581;46.718;7.690;2023-07-28T10:19:25;25.48;54.04
68609;SHT31;55581;46.718;7.690;2023-07-28T10:21:59;25.56;51.67
68609;SHT31;55581;46.718;7.690;2023-07-28T10:27:31;25.42;53.32
68609;SHT31;55581;46.718;7.690;2023-07-28T10:29:58;25.43;53.21
68609;SHT31;55581;46.718;7.690;2023-07-28T10:32:37;25.63;53.80
68609;SHT31;55581;46.718;7.690;2023-07-28T10:37:40;25.75;53.34
68609;SHT31;55581;46.718;7.690;2023-07-28T10:40:32;25.90;53.56
68609;SHT31;55581;46.718;7.690;2023-07-28T10:43:03;26.08;54.66
68609;SHT31;55581;46.718;7.690;2023-07-28T10:45:30;26.10;52.99
68609;SHT31;55581;46.718;7.690;2023-07-28T10:47:58;26.03;56.30
68609;SHT31;55581;46.718;7.690;2023-07-28T10:50:29;25.82;53.05
68609;SHT31;55581;46.718;7.690;2023-07-28T10:52:55;25.50;54.58
68609;SHT31;55581;46.718;7.690;2023-07-28T10:55:26;25.59;54.23
68609;SHT31;55581;46.718;7.690;2023-07-28T10:57:53;25.66;53.45
68609;SHT31;55581;46.718;7.690;2023-07-28T11:00:20;25.70;56.71
68609;SHT31;55581;46.718;7.690;2023-07-28T11:02:48;25.65;57.00
68609;SHT31;55581;46.718;7.690;2023-07-28T11:05:28;25.77;58.02
68609;SHT31;55581;46.718;7.690;2023-07-28T11:07:56;25.98;56.04
68609;SHT31;55581;46.718;7.690;2023-07-28T11:10:23;26.08;57.34
68609;SHT31;55581;46.718;7.690;2023-07-28T11:12:51;26.31;57.71
68609;SHT31;55581;46.718;7.690;2023-07-28T11:15:17;26.20;57.73
68609;SHT31;55581;46.718;7.690;2023-07-28T11:17:49;26.14;55.25
68609;SHT31;55581;46.718;7.690;2023-07-28T11:22:51;26.39;54.38
68609;SHT31;55581;46.718;7.690;2023-07-28T11:25:19;26.25;54.29
68609;SHT31;55581;46.718;7.690;2023-07-28T11:27:46;26.16;52.31
68609;SHT31;55581;46.718;7.690;2023-07-28T11:30:13;26.00;53.19
68609;SHT31;55581;46.718;7.690;2023-07-28T11:32:42;25.94;55.59
68609;SHT31;55581;46.718;7.690;2023-07-28T11:35:10;26.10;56.11
68609;SHT31;55581;46.718;7.690;2023-07-28T11:37:37;26.14;56.27
68609;SHT31;55581;46.718;7.690;2023-07-28T11:40:04;25.97;55.09
68609;SHT31;55581;46.718;7.690;2023-07-28T11:42:49;26.24;55.09
68609;SHT31;55581;46.718;7.690;2023-07-28T11:45:18;26.58;54.99
68609;SHT31;55581;46.718;7.690;2023-07-28T11:50:47;26.56;54.60
68609;SHT31;55581;46.718;7.690;2023-07-28T11:53:11;26.13;56.17
68609;SHT31;55581;46.718;7.690;2023-07-28T11:55:38;26.14;57.90
68609;SHT31;55581;46.718;7.690;2023-07-28T11:58:07;26.13;57.15
68609;SHT31;55581;46.718;7.690;2023-07-28T12:00:39;26.22;58.64
68609;SHT31;55581;46.718;7.690;2023-07-28T12:03:05;26.00;56.88
68609;SHT31;55581;46.718;7.690;2023-07-28T12:05:32;26.07;55.23
68609;SHT31;55581;46.718;7.690;2023-07-28T12:07:58;26.00;53.37
68609;SHT31;55581;46.718;7.690;2023-07-28T12:10:24;25.84;56.59
68609;SHT31;55581;46.718;7.690;2023-07-28T12:12:49;25.97;57.64
68609;SHT31;55581;46.718;7.690;2023-07-28T12:15:26;26.10;58.76
68609;SHT31;55581;46.718;7.690;2023-07-28T12:20:37;26.31;58.75
68609;SHT31;55581;46.718;7.690;2023-07-28T12:23:04;26.47;57.84
68609;SHT31;55581;46.718;7.690;2023-07-28T12:25:32;26.49;58.04
68609;SHT31;55581;46.718;7.690;2023-07-28T12:27:58;26.59;59.61
68609;SHT31;55581;46.718;7.690;2023-07-28T12:30:23;26.60;59.81
68609;SHT31;55581;46.718;7.690;2023-07-28T12:32:49;26.80;56.41
68609;SHT31;55581;46.718;7.690;2023-07-28T12:35:14;27.20;55.55
68609;SHT31;55581;46.718;7.690;2023-07-28T12:37:40;27.62;55.92
68609;SHT31;55581;46.718;7.690;2023-07-28T12:40:07;27.79;51.81
68609;SHT31;55581;46.718;7.690;2023-07-28T12:42:35;28.18;53.44
68609;SHT31;55581;46.718;7.690;2023-07-28T12:45:00;28.54;49.68
68609;SHT31;55581;46.718;7.690;2023-07-28T12:47:26;28.62;51.99
68609;SHT31;55581;46.718;7.690;2023-07-28T12:49:51;28.54;52.90
68609;SHT31;55581;46.718;7.690;2023-07-28T12:52:17;28.30;51.24
68609;SHT31;55581;46.718;7.690;2023-07-28T12:54:42;28.12;52.54
68609;SHT31;55581;46.718;7.690;2023-07-28T12:57:10;28.20;52.32
68609;SHT31;55581;46.718;7.690;2023-07-28T12:59:38;28.03;54.15
68609;SHT31;55581;46.718;7.690;2023-07-28T13:02:06;27.62;53.75
68609;SHT31;55581;46.718;7.690;2023-07-28T13:04:31;27.79;54.03
68609;SHT31;55581;46.718;7.690;2023-07-28T13:06:57;27.89;53.52
68609;SHT31;55581;46.718;7.690;2023-07-28T13:09:23;27.76;54.78
68609;SHT31;55581;46.718;7.690;2023-07-28T13:11:48;28.06;54.37
68609;SHT31;55581;46.718;7.690;2023-07-28T13:14:14;28.18;52.89
68609;SHT31;55581;46.718;7.690;2023-07-28T13:16:41;28.06;54.01
68609;SHT31;55581;46.718;7.690;2023-07-28T13:19:07;28.28;52.09
68609;SHT31;55581;46.718;7.690;2023-07-28T13:21:32;28.20;53.58
68609;SHT31;55581;46.718;7.690;2023-07-28T13:24:00;28.14;50.56
68609;SHT31;55581;46.718;7.690;2023-07-28T13:26:26;28.34;49.06
68609;SHT31;55581;46.718;7.690;2023-07-28T13:28:51;28.12;50.32
68609;SHT31;55581;46.718;7.690;2023-07-28T13:31:17;28.21;52.64
68609;SHT31;55581;46.718;7.690;2023-07-28T13:33:43;28.31;49.43
68609;SHT31;55581;46.718;7.690;2023-07-28T13:36:09;28.45;48.69
68609;SHT31;55581;46.718;7.690;2023-07-28T13:38:35;28.43;49.09
68609;SHT31;55581;46.718;7.690;2023-07-28T13:41:03;28.47;49.18
68609;SHT31;55581;46.718;7.690;2023-07-28T13:43:29;28.44;50.26
68609;SHT31;55581;46.718;7.690;2023-07-28T13:45:54;28.36;48.42
68609;SHT31;55581;46.718;7.690;2023-07-28T13:48:20;28.47;50.86
68609;SHT31;55581;46.718;7.690;2023-07-28T13:50:45;28.28;50.80
68609;SHT31;55581;46.718;7.690;2023-07-28T13:53:10;27.90;49.28
68609;SHT31;55581;46.718;7.690;2023-07-28T13:55:36;27.76;55.61
68609;SHT31;55581;46.718;7.690;2023-07-28T13:58:01;27.63;60.62
68609;SHT31;55581;46.718;7.690;2023-07-28T14:00:27;27.82;53.36
68609;SHT31;55581;46.718;7.690;2023-07-28T14:02:52;28.06;49.52
68609;SHT31;55581;46.718;7.690;2023-07-28T14:05:17;28.27;49.24
68609;SHT31;55581;46.718;7.690;2023-07-28T14:07:44;28.21;47.20
68609;SHT31;55581;46.718;7.690;2023-07-28T14:10:11;28.34;53.50
68609;SHT31;55581;46.718;7.690;2023-07-28T14:12:37;28.05;57.81
68609;SHT31;55581;46.718;7.690;2023-07-28T14:15:03;27.86;60.00
68609;SHT31;55581;46.718;7.690;2023-07-28T14:17:29;27.62;59.81
68609;SHT31;55581;46.718;7.690;2023-07-28T14:19:58;27.68;60.52
68609;SHT31;55581;46.718;7.690;2023-07-28T14:22:23;27.95;57.30
68609;SHT31;55581;46.718;7.690;2023-07-28T14:24:51;28.25;52.21
68609;SHT31;55581;46.718;7.690;2023-07-28T14:27:16;28.61;53.45
68609;SHT31;55581;46.718;7.690;2023-07-28T14:29:42;28.95;45.72
68609;SHT31;55581;46.718;7.690;2023-07-28T14:32:07;29.07;45.62
68609;SHT31;55581;46.718;7.690;2023-07-28T14:34:33;28.80;46.07
68609;SHT31;55581;46.718;7.690;2023-07-28T14:37:04;28.82;48.01
68609;SHT31;55581;46.718;7.690;2023-07-28T14:39:33;28.83;45.07
68609;SHT31;55581;46.718;7.690;2023-07-28T14:42:01;28.83;46.93
68609;SHT31;55581;46.718;7.690;2023-07-28T14:44:26;28.98;47.87
68609;SHT31;55581;46.718;7.690;2023-07-28T14:46:52;28.83;46.24
68609;SHT31;55581;46.718;7.690;2023-07-28T14:49:17;29.02;46.21
68609;SHT31;55581;46.718;7.690;2023-07-28T14:51:42;29.46;44.53
68609;SHT31;55581;46.718;7.690;2023-07-28T14:54:08;29.30;45.47
68609;SHT31;55581;46.718;7.690;2023-07-28T14:56:33;29.26;44.59
68609;SHT31;55581;46.718;7.690;2023-07-28T14:58:59;29.43;45.56
68609;SHT31;55581;46.718;7.690;2023-07-28T15:01:26;29.51;49.32
68609;SHT31;55581;46.718;7.690;2023-07-28T15:03:52;29.02;48.19
68609;SHT31;55581;46.718;7.690;2023-07-28T15:06:17;28.75;48.59
68609;SHT31;55581;46.718;7.690;2023-07-28T15:08:42;28.67;45.91
68609;SHT31;55581;46.718;7.690;2023-07-28T15:11:10;28.41;51.60
68609;SHT31;55581;46.718;7.690;2023-07-28T15:13:38;28.43;52.85
68609;SHT31;55581;46.718;7.690;2023-07-28T15:16:03;28.37;48.37
68609;SHT31;55581;46.718;7.690;2023-07-28T15:18:31;28.17;48.28
68609;SHT31;55581;46.718;7.690;2023-07-28T15:20:56;27.90;50.57
68609;SHT31;55581;46.718;7.690;2023-07-28T15:23:25;27.86;46.66
68609;SHT31;55581;46.718;7.690;2023-07-28T15:25:53;27.73;46.79
68609;SHT31;55581;46.718;7.690;2023-07-28T15:28:24;27.54;47.97
68609;SHT31;55581;46.718;7.690;2023-07-28T15:30:50;27.41;51.71
68609;SHT31;55581;46.718;7.690;2023-07-28T15:33:18;27.17;46.94
68609;SHT31;55581;46.718;7.690;2023-07-28T15:35:44;26.97;47.92
68609;SHT31;55581;46.718;7.690;2023-07-28T15:38:10;26.80;53.39
68609;SHT31;55581;46.718;7.690;2023-07-28T15:40:35;26.78;49.85
68609;SHT31;55581;46.718;7.690;2023-07-28T15:43:01;26.59;49.24
68609;SHT31;55581;46.718;7.690;2023-07-28T15:45:30;26.49;48.57
68609;SHT31;55581;46.718;7.690;2023-07-28T15:47:56;26.34;51.04